sensor_id;sensor_type;location;lat;lon;timestamp;pressure;altitude;pressure_sealevel;temperature;humidity
50093;BME280;35974;47.752;10.290;2024-03-22T00:00:19;94542.00;;;4.21;100.00
50093;BME280;35974;47.752;10.290;2024-03-22T00:02:54;94546.44;;;4.29;100.00
50093;BME280;35974;47.752;10.290;2024-03-22T00:05:20;94550.84;;;4.37;100.00
50093;BME280;35974;47.752;10.290;2024-03-22T00:07:47;94559.19;;;4.22;100.00
50093;BME280;35974;47.752;10.290;2024-03-22T00:10:12;94528.00;;;3.96;100.00
50093;BME280;35974;47.752;10.290;2024-03-22T00:12:39;94549.75;;;4.03;100.00
50093;BME280;35974;47.752;10.290;2024-03-22T00:15:05;94559.53;;;4.10;100.00
50093;BME280;35974;47.752;10.290;2024-03-22T00:17:31;94551.41;;;4.05;100.00
50093;BME280;35974;47.752;10.290;2024-03-22T00:19:56;94545.44;;;3.94;100.00
50093;BME280;35974;47.752;10.290;2024-03-22T00:22:22;94544.66;;;3.94;100.00
50093;BME280;35974;47.752;10.290;2024-03-22T00:24:47;94553.88;;;3.96;100.00
50093;BME280;35974;47.752;10.290;2024-03-22T00:27:13;94545.09;;;3.89;100.00
50093;BME280;35974;47.752;10.290;2024-03-22T00:29:38;94545.31;;;3.96;100.00
50093;BME280;35974;47.752;10.290;2024-03-22T00:32:19;94541.25;;;3.93;100.00
50093;BME280;35974;47.752;10.290;2024-03-22T00:34:44;94548.69;;;3.96;100.00
50093;BME280;35974;47.752;10.290;2024-03-22T00:37:10;94539.00;;;3.80;100.00
50093;BME280;35974;47.752;10.290;2024-03-22T00:39:36;94524.28;;;3.81;100.00
50093;BME280;35974;47.752;10.290;2024-03-22T00:42:01;94556.88;;;4.01;100.00
50093;BME280;35974;47.752;10.290;2024-03-22T00:44:27;94522.88;;;3.87;100.00
50093;BME280;35974;47.752;10.290;2024-03-22T00:46:52;94532.13;;;3.89;100.00
50093;BME280;35974;47.752;10.290;2024-03-22T00:49:18;94526.22;;;3.79;100.00
50093;BME280;35974;47.752;10.290;2024-03-22T00:51:43;94528.59;;;3.90;100.00
50093;BME280;35974;47.752;10.290;2024-03-22T00:54:10;94536.66;;;3.87;100.00
50093;BME280;35974;47.752;10.290;2024-03-22T00:56:36;94524.00;;;3.84;100.00
50093;BME280;35974;47.752;10.290;2024-03-22T00:59:02;94532.50;;;3.76;100.00
50093;BME280;35974;47.752;10.290;2024-03-22T01:01:28;94519.69;;;3.75;100.00
50093;BME280;35974;47.752;10.290;2024-03-22T01:03:54;94513.19;;;3.71;100.00
50093;BME280;35974;47.752;10.290;2024-03-22T01:06:20;94508.06;;;3.61;100.00
50093;BME280;35974;47.752;10.290;2024-03-22T01:09:08;94471.69;;;3.35;100.00
50093;BME280;35974;47.752;10.290;2024-03-22T01:11:34;94493.75;;;3.39;100.00
50093;BME280;35974;47.752;10.290;2024-03-22T01:13:59;94492.94;;;3.38;100.00
50093;BME280;35974;47.752;10.290;2024-03-22T01:16:25;94482.94;;;3.25;100.00
50093;BME280;35974;47.752;10.290;2024-03-22T01:18:50;94487.44;;;3.23;100.00
50093;BME280;35974;47.752;10.290;2024-03-22T01:21:16;94475.88;;;3.18;100.00
50093;BME280;35974;47.752;10.290;2024-03-22T01:23:41;94465.69;;;3.16;100.00
50093;BME280;35974;47.752;10.290;2024-03-22T01:26:07;94490.78;;;3.34;100.00
50093;BME280;35974;47.752;10.290;2024-03-22T01:28:33;94471.22;;;3.21;100.00
50093;BME280;35974;47.752;10.290;2024-03-22T01:30:58;94473.81;;;3.21;100.00
50093;BME280;35974;47.752;10.290;2024-03-22T01:33:24;94484.53;;;3.26;100.00
50093;BME280;35974;47.752;10.290;2024-03-22T01:35:49;94484.84;;;3.23;100.00
50093;BME280;35974;47.752;10.290;2024-03-22T01:38:37;94488.47;;;3.30;100.00
50093;BME280;35974;47.752;10.290;2024-03-22T01:41:02;94487.81;;;3.28;100.00
50093;BME280;35974;47.752;10.290;2024-03-22T01:43:28;94466.94;;;3.12;100.00
50093;BME280;35974;47.752;10.290;2024-03-22T01:45:53;94465.31;;;3.11;100.00
50093;BME280;35974;47.752;10.290;2024-03-22T01:48:19;94468.84;;;3.10;100.00
50093;BME280;35974;47.752;10.290;2024-03-22T01:50:57;94470.44;;;3.21;100.00
50093;BME280;35974;47.752;10.290;2024-03-22T01:53:23;94450.06;;;3.08;100.00
50093;BME280;35974;47.752;10.290;2024-03-22T01:55:49;94475.06;;;3.17;100.00
50093;BME280;35974;47.752;10.290;2024-03-22T01:58:14;94440.06;;;2.95;100.00
50093;BME280;35974;47.752;10.290;2024-03-22T02:00:40;94462.84;;;3.09;100.00
50093;BME280;35974;47.752;10.290;2024-03-22T02:03:19;94434.66;;;2.88;100.00
50093;BME280;35974;47.752;10.290;2024-03-22T02:05:44;94434.94;;;2.85;100.00
50093;BME280;35974;47.752;10.290;2024-03-22T02:08:10;94451.63;;;3.01;100.00
50093;BME280;35974;47.752;10.290;2024-03-22T02:10:35;94457.72;;;3.00;100.00
50093;BME280;35974;47.752;10.290;2024-03-22T02:13:01;94452.34;;;2.83;100.00
50093;BME280;35974;47.752;10.290;2024-03-22T02:15:26;94434.44;;;2.72;100.00
50093;BME280;35974;47.752;10.290;2024-03-22T02:18:00;94439.63;;;2.72;100.00
50093;BME280;35974;47.752;10.290;2024-03-22T02:20:26;94460.00;;;2.75;100.00
50093;BME280;35974;47.752;10.290;2024-03-22T02:22:51;94440.06;;;2.58;100.00
50093;BME280;35974;47.752;10.290;2024-03-22T02:25:17;94432.88;;;2.51;100.00
50093;BME280;35974;47.752;10.290;2024-03-22T02:27:43;94447.16;;;2.55;100.00
50093;BME280;35974;47.752;10.290;2024-03-22T02:30:08;94416.88;;;2.38;100.00
50093;BME280;35974;47.752;10.290;2024-03-22T02:32:45;94417.94;;;2.45;100.00
50093;BME280;35974;47.752;10.290;2024-03-22T02:35:11;94421.47;;;2.54;100.00
50093;BME280;35974;47.752;10.290;2024-03-22T02:37:36;94422.53;;;2.51;100.00
50093;BME280;35974;47.752;10.290;2024-03-22T02:40:02;94417.38;;;2.51;100.00
50093;BME280;35974;47.752;10.290;2024-03-22T02:42:27;94383.31;;;2.28;100.00
50093;BME280;35974;47.752;10.290;2024-03-22T02:44:53;94397.19;;;2.27;100.00
50093;BME280;35974;47.752;10.290;2024-03-22T02:47:18;94384.56;;;2.14;100.00
50093;BME280;35974;47.752;10.290;2024-03-22T02:49:44;94376.44;;;2.09;100.00
50093;BME280;35974;47.752;10.290;2024-03-22T02:52:10;94398.19;;;2.16;100.00
50093;BME280;35974;47.752;10.290;2024-03-22T02:54:35;94405.50;;;2.31;100.00
50093;BME280;35974;47.752;10.290;2024-03-22T02:57:01;94382.56;;;2.08;100.00
50093;BME280;35974;47.752;10.290;2024-03-22T02:59:28;94401.16;;;2.22;100.00
50093;BME280;35974;47.752;10.290;2024-03-22T03:01:53;94404.13;;;2.27;100.00
50093;BME280;35974;47.752;10.290;2024-03-22T03:04:19;94399.25;;;2.24;100.00
50093;BME280;35974;47.752;10.290;2024-03-22T03:06:45;94406.31;;;2.22;100.00
50093;BME280;35974;47.752;10.290;2024-03-22T03:09:14;94372.13;;;2.00;100.00
50093;BME280;35974;47.752;10.290;2024-03-22T03:11:40;94397.38;;;2.06;100.00
50093;BME280;35974;47.752;10.290;2024-03-22T03:14:06;94376.19;;;1.93;100.00
50093;BME280;35974;47.752;10.290;2024-03-22T03:16:32;94403.09;;;2.00;100.00
50093;BME280;35974;47.752;10.290;2024-03-22T03:18:57;94391.13;;;1.99;100.00
50093;BME280;35974;47.752;10.290;2024-03-22T03:21:23;94376.47;;;1.90;100.00
50093;BME280;35974;47.752;10.290;2024-03-22T03:23:48;94378.13;;;1.91;100.00
50093;BME280;35974;47.752;10.290;2024-03-22T03:26:14;94379.75;;;1.92;100.00
50093;BME280;35974;47.752;10.290;2024-03-22T03:28:39;94363.44;;;1.81;100.00
50093;BME280;35974;47.752;10.290;2024-03-22T03:31:05;94365.47;;;1.88;100.00
50093;BME280;35974;47.752;10.290;2024-03-22T03:33:30;94384.81;;;2.31;100.00
50093;BME280;35974;47.752;10.290;2024-03-22T03:35:56;94358.25;;;2.01;100.00
50093;BME280;35974;47.752;10.290;2024-03-22T03:38:22;94385.69;;;2.02;100.00
50093;BME280;35974;47.752;10.290;2024-03-22T03:40:48;94372.13;;;2.00;100.00
50093;BME280;35974;47.752;10.290;2024-03-22T03:43:14;94355.56;;;1.93;100.00
50093;BME280;35974;47.752;10.290;2024-03-22T03:45:39;94375.94;;;1.96;100.00
50093;BME280;35974;47.752;10.290;2024-03-22T03:48:05;94359.78;;;1.84;100.00
50093;BME280;35974;47.752;10.290;2024-03-22T03:50:31;94357.22;;;1.84;100.00
50093;BME280;35974;47.752;10.290;2024-03-22T03:52:56;94366.16;;;1.90;100.00
50093;BME280;35974;47.752;10.290;2024-03-22T03:55:22;94363.72;;;1.78;100.00
50093;BME280;35974;47.752;10.290;2024-03-22T03:57:50;94369.44;;;1.72;100.00
50093;BME280;35974;47.752;10.290;2024-03-22T04:00:17;94373.25;;;1.68;100.00
50093;BME280;35974;47.752;10.290;2024-03-22T04:02:43;94354.78;;;1.63;100.00
50093;BME280;35974;47.752;10.290;2024-03-22T04:05:08;94374.31;;;1.65;100.00
50093;BME280;35974;47.752;10.290;2024-03-22T04:07:34;94364.25;;;1.72;100.00
50093;BME280;35974;47.752;10.290;2024-03-22T04:09:59;94352.63;;;1.49;100.00
50093;BME280;35974;47.752;10.290;2024-03-22T04:12:28;94369.75;;;1.50;100.00
50093;BME280;35974;47.752;10.290;2024-03-22T04:14:54;94333.63;;;1.40;100.00
50093;BME280;35974;47.752;10.290;2024-03-22T04:17:19;94357.25;;;1.55;100.00
50093;BME280;35974;47.752;10.290;2024-03-22T04:19:46;94371.22;;;1.62;100.00
50093;BME280;35974;47.752;10.290;2024-03-22T04:22:14;94357.91;;;1.37;100.00
50093;BME280;35974;47.752;10.290;2024-03-22T04:24:40;94343.94;;;1.50;100.00
50093;BME280;35974;47.752;10.290;2024-03-22T04:27:05;94359.69;;;1.46;100.00
50093;BME280;35974;47.752;10.290;2024-03-22T04:29:32;94352.63;;;1.39;100.00
50093;BME280;35974;47.752;10.290;2024-03-22T04:32:01;94338.63;;;1.22;100.00
50093;BME280;35974;47.752;10.290;2024-03-22T04:34:27;94357.50;;;1.32;100.00
50093;BME280;35974;47.752;10.290;2024-03-22T04:36:52;94363.75;;;1.39;100.00
50093;BME280;35974;47.752;10.290;2024-03-22T04:39:25;94348.69;;;1.25;100.00
50093;BME280;35974;47.752;10.290;2024-03-22T04:41:50;94344.75;;;1.21;100.00
50093;BME280;35974;47.752;10.290;2024-03-22T04:44:16;94347.06;;;1.43;100.00
50093;BME280;35974;47.752;10.290;2024-03-22T04:46:41;94338.78;;;1.30;100.00
50093;BME280;35974;47.752;10.290;2024-03-22T04:49:07;94347.06;;;1.24;100.00
50093;BME280;35974;47.752;10.290;2024-03-22T04:51:32;94339.59;;;1.21;100.00
50093;BME280;35974;47.752;10.290;2024-03-22T04:53:58;94313.53;;;1.04;100.00
50093;BME280;35974;47.752;10.290;2024-03-22T04:56:24;94343.66;;;1.23;100.00
50093;BME280;35974;47.752;10.290;2024-03-22T04:58:50;94338.50;;;1.14;100.00
50093;BME280;35974;47.752;10.290;2024-03-22T05:01:15;94351.81;;;1.19;100.00
50093;BME280;35974;47.752;10.290;2024-03-22T05:03:41;94328.47;;;1.11;100.00
50093;BME280;35974;47.752;10.290;2024-03-22T05:06:07;94329.28;;;1.01;100.00
50093;BME280;35974;47.752;10.290;2024-03-22T05:08:36;94356.38;;;1.05;100.00
50093;BME280;35974;47.752;10.290;2024-03-22T05:11:02;94334.69;;;0.98;100.00
50093;BME280;35974;47.752;10.290;2024-03-22T05:13:28;94338.22;;;0.97;100.00
50093;BME280;35974;47.752;10.290;2024-03-22T05:15:53;94338.06;;;0.89;100.00
50093;BME280;35974;47.752;10.290;2024-03-22T05:18:19;94333.88;;;0.88;100.00
50093;BME280;35974;47.752;10.290;2024-03-22T05:20:44;94337.66;;;0.84;100.00
50093;BME280;35974;47.752;10.290;2024-03-22T05:23:10;94331.16;;;0.80;100.00
50093;BME280;35974;47.752;10.290;2024-03-22T05:25:35;94336.84;;;0.93;100.00
50093;BME280;35974;47.752;10.290;2024-03-22T05:28:01;94346.63;;;0.99;100.00
50093;BME280;35974;47.752;10.290;2024-03-22T05:30:27;94343.34;;;0.97;100.00
50093;BME280;35974;47.752;10.290;2024-03-22T05:32:52;94316.22;;;0.73;100.00
50093;BME280;35974;47.752;10.290;2024-03-22T05:35:18;94325.69;;;0.83;100.00
50093;BME280;35974;47.752;10.290;2024-03-22T05:37:44;94331.72;;;0.93;100.00
50093;BME280;35974;47.752;10.290;2024-03-22T05:40:10;94348.50;;;0.97;100.00
50093;BME280;35974;47.752;10.290;2024-03-22T05:42:37;94327.63;;;1.00;100.00
50093;BME280;35974;47.752;10.290;2024-03-22T05:45:02;94306.22;;;0.90;100.00
50093;BME280;35974;47.752;10.290;2024-03-22T05:47:29;94328.31;;;1.02;100.00
50093;BME280;35974;47.752;10.290;2024-03-22T05:49:56;94311.09;;;0.93;100.00
50093;BME280;35974;47.752;10.290;2024-03-22T05:52:31;94318.97;;;1.01;100.00
50093;BME280;35974;47.752;10.290;2024-03-22T05:54:58;94328.75;;;1.07;100.00
50093;BME280;35974;47.752;10.290;2024-03-22T05:57:28;94313.28;;;1.07;100.00
50093;BME280;35974;47.752;10.290;2024-03-22T05:59:55;94301.06;;;0.90;100.00
50093;BME280;35974;47.752;10.290;2024-03-22T06:02:26;94306.75;;;1.03;100.00
50093;BME280;35974;47.752;10.290;2024-03-22T06:04:57;94292.38;;;0.91;100.00
50093;BME280;35974;47.752;10.290;2024-03-22T06:07:27;94318.69;;;1.04;100.00
50093;BME280;35974;47.752;10.290;2024-03-22T06:09:54;94313.53;;;1.04;100.00
50093;BME280;35974;47.752;10.290;2024-03-22T06:12:36;94334.44;;;1.21;100.00
50093;BME280;35974;47.752;10.290;2024-03-22T06:15:09;94332.00;;;1.29;100.00
50093;BME280;35974;47.752;10.290;2024-03-22T06:17:34;94318.16;;;1.30;100.00
50093;BME280;35974;47.752;10.290;2024-03-22T06:20:00;94321.16;;;1.35;100.00
50093;BME280;35974;47.752;10.290;2024-03-22T06:22:26;94318.16;;;1.50;100.00
50093;BME280;35974;47.752;10.290;2024-03-22T06:24:52;94309.72;;;1.48;100.00
50093;BME280;35974;47.752;10.290;2024-03-22T06:27:18;94331.69;;;1.71;100.00
50093;BME280;35974;47.752;10.290;2024-03-22T06:29:45;94314.59;;;1.70;100.00
50093;BME280;35974;47.752;10.290;2024-03-22T06:32:11;94305.63;;;1.74;100.00
50093;BME280;35974;47.752;10.290;2024-03-22T06:34:37;94312.34;;;1.95;100.00
50093;BME280;35974;47.752;10.290;2024-03-22T06:37:03;94314.47;;;2.09;100.00
50093;BME280;35974;47.752;10.290;2024-03-22T06:39:29;94295.84;;;2.15;100.00
50093;BME280;35974;47.752;10.290;2024-03-22T06:42:11;94306.75;;;2.37;100.00
50093;BME280;35974;47.752;10.290;2024-03-22T06:44:36;94279.03;;;2.39;100.00
50093;BME280;35974;47.752;10.290;2024-03-22T06:47:02;94294.53;;;2.67;100.00
50093;BME280;35974;47.752;10.290;2024-03-22T06:49:27;94308.94;;;2.87;100.00
50093;BME280;35974;47.752;10.290;2024-03-22T06:51:53;94308.81;;;3.07;100.00
50093;BME280;35974;47.752;10.290;2024-03-22T06:54:18;94294.66;;;3.11;100.00
50093;BME280;35974;47.752;10.290;2024-03-22T06:56:44;94299.38;;;3.34;100.00
50093;BME280;35974;47.752;10.290;2024-03-22T06:59:09;94296.50;;;3.37;100.00
50093;BME280;35974;47.752;10.290;2024-03-22T07:01:35;94315.03;;;3.50;100.00
50093;BME280;35974;47.752;10.290;2024-03-22T07:04:00;94292.41;;;3.52;100.00
50093;BME280;35974;47.752;10.290;2024-03-22T07:06:26;94310.09;;;3.83;100.00
50093;BME280;35974;47.752;10.290;2024-03-22T07:08:51;94301.06;;;3.87;100.00
50093;BME280;35974;47.752;10.290;2024-03-22T07:11:17;94292.00;;;3.91;100.00
50093;BME280;35974;47.752;10.290;2024-03-22T07:13:42;94304.91;;;4.09;100.00
50093;BME280;35974;47.752;10.290;2024-03-22T07:16:07;94298.09;;;4.34;100.00
50093;BME280;35974;47.752;10.290;2024-03-22T07:18:33;94289.97;;;4.29;100.00
50093;BME280;35974;47.752;10.290;2024-03-22T07:20:58;94302.97;;;4.37;100.00
50093;BME280;35974;47.752;10.290;2024-03-22T07:23:27;94294.41;;;4.45;100.00
50093;BME280;35974;47.752;10.290;2024-03-22T07:25:52;94289.09;;;4.55;100.00
50093;BME280;35974;47.752;10.290;2024-03-22T07:28:18;94288.47;;;4.61;100.00
50093;BME280;35974;47.752;10.290;2024-03-22T07:30:43;94295.63;;;4.75;100.00
50093;BME280;35974;47.752;10.290;2024-03-22T07:33:10;94285.00;;;4.95;100.00
50093;BME280;35974;47.752;10.290;2024-03-22T07:35:39;94275.97;;;5.16;100.00
50093;BME280;35974;47.752;10.290;2024-03-22T07:38:05;94291.88;;;5.45;100.00
50093;BME280;35974;47.752;10.290;2024-03-22T07:40:30;94286.81;;;5.68;100.00
50093;BME280;35974;47.752;10.290;2024-03-22T07:42:56;94273.69;;;5.70;100.00
50093;BME280;35974;47.752;10.290;2024-03-22T07:45:21;94277.56;;;5.82;100.00
50093;BME280;35974;47.752;10.290;2024-03-22T07:47:51;94265.25;;;5.76;100.00
50093;BME280;35974;47.752;10.290;2024-03-22T07:50:17;94273.19;;;5.99;100.00
50093;BME280;35974;47.752;10.290;2024-03-22T07:52:42;94255.81;;;6.08;100.00
50093;BME280;35974;47.752;10.290;2024-03-22T07:55:08;94249.44;;;6.11;100.00
50093;BME280;35974;47.752;10.290;2024-03-22T07:57:33;94266.75;;;6.35;100.00
50093;BME280;35974;47.752;10.290;2024-03-22T07:59:59;94255.28;;;6.60;100.00
50093;BME280;35974;47.752;10.290;2024-03-22T08:02:24;94275.25;;;7.00;100.00
50093;BME280;35974;47.752;10.290;2024-03-22T08:04:50;94247.13;;;6.95;100.00
50093;BME280;35974;47.752;10.290;2024-03-22T08:07:16;94254.66;;;7.13;100.00
50093;BME280;35974;47.752;10.290;2024-03-22T08:09:41;94255.91;;;7.63;100.00
50093;BME280;35974;47.752;10.290;2024-03-22T08:12:07;94242.41;;;7.45;100.00
50093;BME280;35974;47.752;10.290;2024-03-22T08:14:33;94247.31;;;7.78;100.00
50093;BME280;35974;47.752;10.290;2024-03-22T08:16:58;94255.97;;;7.93;100.00
50093;BME280;35974;47.752;10.290;2024-03-22T08:19:24;94234.03;;;8.02;100.00
50093;BME280;35974;47.752;10.290;2024-03-22T08:21:49;94240.63;;;8.13;100.00
50093;BME280;35974;47.752;10.290;2024-03-22T08:24:15;94254.22;;;8.38;100.00
50093;BME280;35974;47.752;10.290;2024-03-22T08:26:40;94234.06;;;8.62;100.00
50093;BME280;35974;47.752;10.290;2024-03-22T08:29:06;94234.56;;;8.72;100.00
50093;BME280;35974;47.752;10.290;2024-03-22T08:31:31;94227.91;;;8.85;100.00
50093;BME280;35974;47.752;10.290;2024-03-22T08:33:57;94242.97;;;9.04;100.00
50093;BME280;35974;47.752;10.290;2024-03-22T08:36:22;94257.03;;;9.25;100.00
50093;BME280;35974;47.752;10.290;2024-03-22T08:38:49;94245.09;;;9.15;100.00
50093;BME280;35974;47.752;10.290;2024-03-22T08:41:14;94217.22;;;9.44;100.00
50093;BME280;35974;47.752;10.290;2024-03-22T08:43:40;94239.69;;;9.88;100.00
50093;BME280;35974;47.752;10.290;2024-03-22T08:46:05;94206.69;;;9.87;100.00
50093;BME280;35974;47.752;10.290;2024-03-22T08:48:31;94212.28;;;9.84;100.00
50093;BME280;35974;47.752;10.290;2024-03-22T08:50:56;94233.78;;;10.08;100.00
50093;BME280;35974;47.752;10.290;2024-03-22T08:53:22;94172.47;;;9.82;100.00
50093;BME280;35974;47.752;10.290;2024-03-22T08:55:48;94234.88;;;10.55;100.00
50093;BME280;35974;47.752;10.290;2024-03-22T08:58:14;94225.69;;;10.73;100.00
50093;BME280;35974;47.752;10.290;2024-03-22T09:00:43;94211.50;;;10.54;100.00
50093;BME280;35974;47.752;10.290;2024-03-22T09:03:09;94211.56;;;10.74;100.00
50093;BME280;35974;47.752;10.290;2024-03-22T09:05:35;94196.03;;;10.66;100.00
50093;BME280;35974;47.752;10.290;2024-03-22T09:08:00;94205.59;;;10.93;100.00
50093;BME280;35974;47.752;10.290;2024-03-22T09:10:26;94201.94;;;10.81;100.00
50093;BME280;35974;47.752;10.290;2024-03-22T09:12:52;94178.97;;;10.70;100.00
50093;BME280;35974;47.752;10.290;2024-03-22T09:15:17;94192.56;;;11.07;100.00
50093;BME280;35974;47.752;10.290;2024-03-22T09:17:43;94182.28;;;11.25;100.00
50093;BME280;35974;47.752;10.290;2024-03-22T09:20:09;94185.53;;;11.41;100.00
50093;BME280;35974;47.752;10.290;2024-03-22T09:22:40;94185.34;;;11.49;100.00
50093;BME280;35974;47.752;10.290;2024-03-22T09:25:06;94169.00;;;11.47;100.00
50093;BME280;35974;47.752;10.290;2024-03-22T09:27:32;94179.50;;;11.73;100.00
50093;BME280;35974;47.752;10.290;2024-03-22T09:29:58;94179.47;;;11.80;100.00
50093;BME280;35974;47.752;10.290;2024-03-22T09:32:23;94166.34;;;12.07;100.00
50093;BME280;35974;47.752;10.290;2024-03-22T09:34:49;94162.00;;;12.39;100.00
50093;BME280;35974;47.752;10.290;2024-03-22T09:37:17;94186.97;;;12.62;100.00
50093;BME280;35974;47.752;10.290;2024-03-22T09:39:43;94169.88;;;12.85;100.00
50093;BME280;35974;47.752;10.290;2024-03-22T09:42:13;94158.28;;;12.99;100.00
50093;BME280;35974;47.752;10.290;2024-03-22T09:44:44;94154.00;;;13.11;100.00
50093;BME280;35974;47.752;10.290;2024-03-22T09:47:14;94162.97;;;12.97;100.00
50093;BME280;35974;47.752;10.290;2024-03-22T09:49:44;94172.63;;;13.03;100.00
50093;BME280;35974;47.752;10.290;2024-03-22T09:52:15;94154.00;;;13.11;100.00
50093;BME280;35974;47.752;10.290;2024-03-22T09:54:43;94148.19;;;13.34;100.00
50093;BME280;35974;47.752;10.290;2024-03-22T09:57:18;94143.53;;;13.62;100.00
50093;BME280;35974;47.752;10.290;2024-03-22T09:59:45;94155.69;;;13.56;100.00
50093;BME280;35974;47.752;10.290;2024-03-22T10:02:12;94154.47;;;13.59;100.00
50093;BME280;35974;47.752;10.290;2024-03-22T10:04:41;94128.56;;;13.30;100.00
50093;BME280;35974;47.752;10.290;2024-03-22T10:07:07;94141.91;;;13.61;100.00
50093;BME280;35974;47.752;10.290;2024-03-22T10:09:36;94147.38;;;13.84;100.00
50093;BME280;35974;47.752;10.290;2024-03-22T10:12:03;94141.56;;;14.01;100.00
50093;BME280;35974;47.752;10.290;2024-03-22T10:14:29;94126.19;;;13.98;100.00
50093;BME280;35974;47.752;10.290;2024-03-22T10:16:56;94128.53;;;14.06;100.00
50093;BME280;35974;47.752;10.290;2024-03-22T10:19:23;94141.09;;;14.41;100.00
50093;BME280;35974;47.752;10.290;2024-03-22T10:22:02;94136.13;;;14.51;100.00
50093;BME280;35974;47.752;10.290;2024-03-22T10:24:28;94117.25;;;14.54;100.00
50093;BME280;35974;47.752;10.290;2024-03-22T10:26:54;94104.69;;;14.38;100.00
50093;BME280;35974;47.752;10.290;2024-03-22T10:29:20;94127.19;;;14.52;100.00
50093;BME280;35974;47.752;10.290;2024-03-22T10:31:46;94129.25;;;14.50;100.00
50093;BME280;35974;47.752;10.290;2024-03-22T10:34:14;94116.59;;;14.89;100.00
50093;BME280;35974;47.752;10.290;2024-03-22T10:36:40;94088.66;;;14.88;100.00
50093;BME280;35974;47.752;10.290;2024-03-22T10:39:07;94108.44;;;14.79;100.00
50093;BME280;35974;47.752;10.290;2024-03-22T10:41:34;94120.72;;;14.85;100.00
50093;BME280;35974;47.752;10.290;2024-03-22T10:43:59;94122.16;;;14.69;100.00
50093;BME280;35974;47.752;10.290;2024-03-22T10:46:30;94105.88;;;15.02;100.00
50093;BME280;35974;47.752;10.290;2024-03-22T10:48:57;94096.81;;;14.98;100.00
50093;BME280;35974;47.752;10.290;2024-03-22T10:51:24;94096.75;;;14.56;100.00
50093;BME280;35974;47.752;10.290;2024-03-22T10:53:53;94082.09;;;14.79;100.00
50093;BME280;35974;47.752;10.290;2024-03-22T10:56:21;94087.84;;;14.57;100.00
50093;BME280;35974;47.752;10.290;2024-03-22T10:58:48;94087.47;;;14.54;100.00
50093;BME280;35974;47.752;10.290;2024-03-22T11:01:25;94090.47;;;14.57;100.00
50093;BME280;35974;47.752;10.290;2024-03-22T11:04:02;94092.31;;;14.87;100.00
50093;BME280;35974;47.752;10.290;2024-03-22T11:06:30;94079.78;;;15.13;100.00
50093;BME280;35974;47.752;10.290;2024-03-22T11:08:59;94058.00;;;15.06;100.00
50093;BME280;35974;47.752;10.290;2024-03-22T11:11:29;94052.97;;;15.16;100.00
50093;BME280;35974;47.752;10.290;2024-03-22T11:13:57;94071.22;;;15.29;100.00
50093;BME280;35974;47.752;10.290;2024-03-22T11:16:23;94051.59;;;15.25;100.00
50093;BME280;35974;47.752;10.290;2024-03-22T11:18:49;94081.22;;;14.85;100.00
50093;BME280;35974;47.752;10.290;2024-03-22T11:21:15;94053.00;;;14.74;100.00
50093;BME280;35974;47.752;10.290;2024-03-22T11:23:40;94078.38;;;14.98;100.00
50093;BME280;35974;47.752;10.290;2024-03-22T11:26:06;94031.53;;;15.00;100.00
50093;BME280;35974;47.752;10.290;2024-03-22T11:28:34;94044.97;;;15.34;100.00
50093;BME280;35974;47.752;10.290;2024-03-22T11:31:03;94041.75;;;15.32;100.00
50093;BME280;35974;47.752;10.290;2024-03-22T11:33:31;94050.47;;;15.45;100.00
50093;BME280;35974;47.752;10.290;2024-03-22T11:36:04;94030.41;;;15.20;100.00
50093;BME280;35974;47.752;10.290;2024-03-22T11:38:32;94033.03;;;15.20;100.00
50093;BME280;35974;47.752;10.290;2024-03-22T11:41:12;94035.09;;;15.18;100.00
50093;BME280;35974;47.752;10.290;2024-03-22T11:43:52;94037.56;;;14.89;100.00
50093;BME280;35974;47.752;10.290;2024-03-22T11:46:21;94011.22;;;14.89;100.00
50093;BME280;35974;47.752;10.290;2024-03-22T11:48:54;94020.41;;;15.22;100.00
50093;BME280;35974;47.752;10.290;2024-03-22T11:51:30;94037.72;;;15.65;100.00
50093;BME280;35974;47.752;10.290;2024-03-22T11:53:56;94010.78;;;15.63;100.00
50093;BME280;35974;47.752;10.290;2024-03-22T11:56:22;94039.44;;;15.95;100.00
50093;BME280;35974;47.752;10.290;2024-03-22T11:58:58;94026.47;;;16.05;100.00
50093;BME280;35974;47.752;10.290;2024-03-22T12:01:37;94007.03;;;16.11;100.00
50093;BME280;35974;47.752;10.290;2024-03-22T12:04:03;94006.41;;;15.81;100.00
50093;BME280;35974;47.752;10.290;2024-03-22T12:06:33;94016.94;;;16.04;100.00
50093;BME280;35974;47.752;10.290;2024-03-22T12:09:02;94009.72;;;16.00;100.00
50093;BME280;35974;47.752;10.290;2024-03-22T12:11:38;93989.69;;;15.63;100.00
50093;BME280;35974;47.752;10.290;2024-03-22T12:14:06;94006.41;;;15.81;100.00
50093;BME280;35974;47.752;10.290;2024-03-22T12:16:34;93995.38;;;16.24;100.00
50093;BME280;35974;47.752;10.290;2024-03-22T12:19:21;93995.03;;;16.04;100.00
50093;BME280;35974;47.752;10.290;2024-03-22T12:21:49;93992.97;;;16.23;100.00
50093;BME280;35974;47.752;10.290;2024-03-22T12:24:15;93964.88;;;15.88;100.00
50093;BME280;35974;47.752;10.290;2024-03-22T12:26:50;93976.22;;;15.88;100.00
50093;BME280;35974;47.752;10.290;2024-03-22T12:29:16;93967.91;;;15.80;100.00
50093;BME280;35974;47.752;10.290;2024-03-22T12:31:42;93977.06;;;16.46;100.00
50093;BME280;35974;47.752;10.290;2024-03-22T12:34:09;93938.56;;;16.68;100.00
50093;BME280;35974;47.752;10.290;2024-03-22T12:36:35;93924.72;;;16.77;100.00
50093;BME280;35974;47.752;10.290;2024-03-22T12:39:02;93959.03;;;17.06;100.00
50093;BME280;35974;47.752;10.290;2024-03-22T12:41:28;93926.94;;;16.52;100.00
50093;BME280;35974;47.752;10.290;2024-03-22T12:47:15;93930.84;;;16.95;100.00
50093;BME280;35974;47.752;10.290;2024-03-22T12:49:46;93952.41;;;16.75;100.00